createdAt,value
2023-05-13T00:00:51.624Z,55.50
2023-05-13T00:03:19.321Z,55.80
2023-05-13T00:05:47.052Z,55.70
2023-05-13T00:08:14.593Z,56.30
2023-05-13T00:10:41.867Z,56.40
2023-05-13T00:13:09.550Z,56.70
2023-05-13T00:15:37.032Z,57.40
2023-05-13T00:18:04.807Z,57.80
2023-05-13T00:20:32.012Z,72.80
2023-05-13T00:22:59.633Z,60.80
2023-05-13T00:25:26.884Z,58.40
2023-05-13T00:27:54.510Z,58.60
2023-05-13T00:30:22.104Z,58.70
2023-05-13T00:32:49.738Z,58.80
2023-05-13T00:35:17.520Z,59.30
2023-05-13T00:37:44.991Z,59.00
2023-05-13T00:40:21.552Z,59.30
2023-05-13T00:42:49.600Z,59.50
2023-05-13T00:45:17.366Z,59.50
2023-05-13T00:47:45.034Z,59.70
2023-05-13T00:50:14.284Z,59.90
2023-05-13T00:52:43.118Z,60.00
2023-05-13T00:55:11.372Z,60.30
2023-05-13T00:57:40.264Z,60.60
2023-05-13T01:00:09.264Z,60.20
2023-05-13T01:02:45.876Z,60.00
2023-05-13T01:05:49.535Z,60.00
2023-05-13T01:08:42.345Z,60.60
2023-05-13T01:11:29.745Z,61.60
2023-05-13T01:14:09.463Z,61.60
2023-05-13T01:16:49.476Z,61.00
2023-05-13T01:19:38.858Z,60.40
2023-05-13T01:22:07.262Z,60.10
2023-05-13T01:24:34.647Z,60.00
2023-05-13T01:27:02.485Z,59.80
2023-05-13T01:29:31.353Z,59.60
2023-05-13T01:32:00.641Z,59.80
2023-05-13T01:34:29.295Z,59.70
2023-05-13T01:36:57.779Z,59.90
2023-05-13T01:39:25.820Z,60.00
2023-05-13T01:41:57.441Z,59.80
2023-05-13T01:44:25.473Z,59.80
2023-05-13T01:46:53.687Z,59.20
2023-05-13T01:49:21.634Z,59.50
2023-05-13T01:51:49.055Z,59.60
2023-05-13T01:54:16.443Z,59.70
2023-05-13T01:56:49.083Z,59.20
2023-05-13T01:59:16.519Z,59.40
2023-05-13T02:01:45.718Z,59.40
2023-05-13T02:04:13.009Z,59.50
2023-05-13T02:06:42.418Z,59.80
2023-05-13T02:09:10.185Z,60.30
2023-05-13T02:11:40.900Z,60.90
2023-05-13T02:14:08.349Z,60.70
2023-05-13T02:16:38.429Z,60.90
2023-05-13T02:19:07.539Z,60.80
2023-05-13T02:21:35.237Z,60.80
2023-05-13T02:24:02.667Z,60.80
2023-05-13T02:26:30.144Z,61.00
2023-05-13T02:28:57.763Z,60.70
2023-05-13T02:31:25.669Z,60.70
2023-05-13T02:33:52.914Z,60.50
2023-05-13T02:36:20.592Z,60.20
2023-05-13T02:38:49.159Z,60.10
2023-05-13T02:41:17.780Z,60.00
2023-05-13T02:43:45.204Z,59.70
2023-05-13T02:46:12.979Z,59.80
2023-05-13T02:48:40.545Z,60.10
2023-05-13T02:51:09.576Z,60.00
2023-05-13T02:53:37.416Z,60.20
2023-05-13T02:56:07.746Z,59.90
2023-05-13T02:58:36.787Z,60.00
2023-05-13T03:01:04.396Z,59.80
2023-05-13T03:03:31.769Z,59.70
2023-05-13T03:06:00.470Z,59.60
2023-05-13T03:08:28.167Z,59.40
2023-05-13T03:10:55.854Z,59.40
2023-05-13T03:13:23.063Z,59.60
2023-05-13T03:15:50.672Z,59.50
2023-05-13T03:18:18.157Z,59.10
2023-05-13T03:20:45.953Z,58.90
2023-05-13T03:23:13.525Z,58.70
2023-05-13T03:25:42.283Z,58.50
2023-05-13T03:28:09.907Z,58.20
2023-05-13T03:30:42.612Z,58.10
2023-05-13T03:33:14.641Z,58.10
2023-05-13T03:35:42.184Z,58.30
2023-05-13T03:38:09.484Z,57.90
2023-05-13T03:40:42.326Z,58.10
2023-05-13T03:43:09.645Z,57.90
2023-05-13T03:45:39.577Z,57.90
2023-05-13T03:48:10.358Z,57.30
2023-05-13T03:50:37.871Z,57.20
2023-05-13T03:53:05.313Z,57.20
2023-05-13T03:55:35.089Z,57.00
2023-05-13T03:58:12.379Z,56.80
2023-05-13T04:00:40.019Z,56.40
2023-05-13T04:03:07.370Z,56.40
2023-05-13T04:05:34.962Z,55.90
2023-05-13T04:08:02.254Z,56.00
2023-05-13T04:10:29.890Z,55.70
2023-05-13T04:12:58.052Z,55.40
2023-05-13T04:15:25.710Z,55.20
2023-05-13T04:17:53.898Z,55.20
2023-05-13T04:20:21.860Z,54.60
2023-05-13T04:22:49.264Z,54.20
2023-05-13T04:25:16.842Z,54.30
2023-05-13T04:27:44.378Z,54.40
2023-05-13T04:30:17.271Z,53.70
2023-05-13T04:32:45.275Z,53.30
2023-05-13T04:35:13.586Z,53.20
2023-05-13T04:37:43.861Z,53.30
2023-05-13T04:40:15.017Z,53.60
2023-05-13T04:42:42.464Z,53.30
2023-05-13T04:45:10.802Z,53.40
2023-05-13T04:47:38.302Z,53.20
2023-05-13T04:50:07.558Z,53.70
2023-05-13T04:52:37.286Z,53.50
2023-05-13T04:55:05.367Z,52.80
2023-05-13T04:57:34.515Z,53.60
2023-05-13T05:00:03.756Z,53.30
2023-05-13T05:02:34.418Z,52.90
2023-05-13T05:05:01.675Z,52.60
2023-05-13T05:07:29.748Z,52.70
2023-05-13T05:09:57.362Z,52.70
2023-05-13T05:12:27.129Z,53.30
2023-05-13T05:14:54.277Z,51.90
2023-05-13T05:17:21.842Z,51.90
2023-05-13T05:19:49.181Z,51.80
2023-05-13T05:22:17.008Z,51.80
2023-05-13T05:24:47.822Z,51.50
2023-05-13T05:27:15.503Z,50.60
2023-05-13T05:29:42.752Z,50.90
2023-05-13T05:32:10.508Z,50.30
2023-05-13T05:34:38.399Z,49.70
2023-05-13T05:37:06.488Z,50.20
2023-05-13T05:39:35.478Z,51.30
2023-05-13T05:42:03.895Z,50.50
2023-05-13T05:44:31.684Z,50.70
2023-05-13T05:46:59.466Z,49.70
2023-05-13T05:49:27.517Z,49.40
2023-05-13T05:51:55.280Z,49.30
2023-05-13T05:54:22.970Z,49.60
2023-05-13T05:56:50.476Z,48.70
2023-05-13T05:59:18.005Z,48.20
2023-05-13T06:01:46.231Z,48.10
2023-05-13T06:04:13.623Z,48.30
2023-05-13T06:06:41.290Z,47.70
2023-05-13T06:09:09.042Z,47.10
2023-05-13T06:11:36.795Z,47.90
2023-05-13T06:14:04.162Z,47.80
2023-05-13T06:16:31.820Z,46.50
2023-05-13T06:19:00.931Z,47.00
2023-05-13T06:21:28.436Z,46.10
2023-05-13T06:23:56.042Z,46.20
2023-05-13T06:26:23.620Z,46.00
2023-05-13T06:28:50.871Z,46.60
2023-05-13T06:31:18.682Z,45.90
2023-05-13T06:33:47.039Z,45.30
2023-05-13T06:36:14.657Z,45.30
2023-05-13T06:38:42.038Z,44.90
2023-05-13T06:41:09.600Z,44.90
2023-05-13T06:43:39.158Z,44.90
2023-05-13T06:46:20.582Z,44.30
2023-05-13T06:48:47.887Z,45.20
2023-05-13T06:51:15.649Z,43.00
2023-05-13T06:53:42.903Z,43.30
2023-05-13T06:56:11.181Z,43.10
2023-05-13T06:58:38.357Z,42.80
2023-05-13T07:01:06.093Z,43.40
2023-05-13T07:03:34.813Z,42.60
2023-05-13T07:06:02.313Z,42.30
2023-05-13T07:08:29.558Z,41.30
2023-05-13T07:10:57.087Z,40.20
2023-05-13T07:13:24.754Z,41.50
2023-05-13T07:15:53.064Z,41.70
2023-05-13T07:18:20.415Z,41.70
2023-05-13T07:20:48.016Z,41.50
2023-05-13T07:23:16.432Z,41.30
2023-05-13T07:25:44.264Z,41.60
2023-05-13T07:28:11.505Z,41.30
2023-05-13T07:30:42.029Z,41.70
2023-05-13T07:33:09.341Z,42.60
2023-05-13T07:35:37.684Z,41.40
2023-05-13T07:38:05.254Z,41.90
2023-05-13T07:40:32.703Z,42.30
2023-05-13T07:43:00.038Z,43.20
2023-05-13T07:45:27.858Z,41.60
2023-05-13T07:47:55.272Z,42.70
2023-05-13T07:50:23.031Z,42.00
2023-05-13T07:52:51.779Z,41.70
2023-05-13T07:55:19.694Z,41.40
2023-05-13T07:57:46.980Z,41.10
2023-05-13T08:00:15.790Z,42.40
2023-05-13T08:02:43.936Z,40.90
2023-05-13T08:05:12.428Z,40.80
2023-05-13T08:07:39.780Z,41.50
2023-05-13T08:10:07.839Z,41.70
2023-05-13T08:12:35.339Z,41.00
2023-05-13T08:15:06.220Z,40.90
2023-05-13T08:17:34.585Z,41.70
2023-05-13T08:20:03.637Z,41.30
2023-05-13T08:22:31.102Z,41.20
2023-05-13T08:25:01.045Z,40.40
2023-05-13T08:27:28.961Z,39.80
2023-05-13T08:29:56.807Z,39.30
2023-05-13T08:32:24.090Z,38.30
2023-05-13T08:34:51.622Z,38.90
2023-05-13T08:37:18.885Z,38.00
2023-05-13T08:39:46.533Z,37.80
2023-05-13T08:42:19.385Z,38.40
2023-05-13T08:44:48.317Z,39.20
2023-05-13T08:47:21.746Z,38.90
2023-05-13T08:49:50.772Z,38.10
2023-05-13T08:52:20.796Z,37.50
2023-05-13T08:54:49.695Z,38.10
2023-05-13T08:57:17.062Z,38.70
2023-05-13T08:59:44.707Z,39.30
2023-05-13T09:02:12.265Z,38.10
2023-05-13T09:04:42.209Z,38.90
2023-05-13T09:07:09.850Z,38.10
2023-05-13T09:09:37.764Z,38.00
2023-05-13T09:12:05.939Z,37.00
2023-05-13T09:14:33.561Z,36.40
2023-05-13T09:17:04.114Z,37.30
2023-05-13T09:19:36.466Z,36.50
2023-05-13T09:22:03.743Z,35.80
2023-05-13T09:24:31.265Z,35.60
2023-05-13T09:26:58.451Z,36.20
2023-05-13T09:29:29.465Z,36.70
2023-05-13T09:31:59.551Z,36.40
2023-05-13T09:34:31.321Z,37.10
2023-05-13T09:37:06.707Z,35.70
2023-05-13T09:39:41.856Z,34.90
2023-05-13T09:42:16.786Z,34.70
2023-05-13T09:44:48.144Z,34.90
2023-05-13T09:47:17.036Z,34.90
2023-05-13T09:49:46.004Z,34.60
2023-05-13T09:52:16.969Z,34.40
2023-05-13T09:54:44.882Z,34.40
2023-05-13T09:57:13.966Z,34.00
2023-05-13T09:59:42.000Z,34.80
2023-05-13T10:02:10.321Z,34.70
2023-05-13T10:04:38.374Z,33.50
2023-05-13T10:07:06.699Z,34.10
2023-05-13T10:09:36.544Z,33.70
2023-05-13T10:12:07.459Z,33.00
2023-05-13T10:14:37.370Z,33.00
2023-05-13T10:17:06.633Z,32.90
2023-05-13T10:19:34.908Z,33.70
2023-05-13T10:22:02.964Z,33.90
2023-05-13T10:24:31.278Z,33.30
2023-05-13T10:27:02.029Z,34.20
2023-05-13T10:29:30.813Z,33.60
2023-05-13T10:32:00.040Z,32.10
2023-05-13T10:34:28.838Z,32.60
2023-05-13T10:37:13.820Z,32.60
2023-05-13T10:40:05.001Z,33.30
2023-05-13T10:42:43.101Z,32.20
2023-05-13T10:45:11.074Z,32.80
2023-05-13T10:47:39.819Z,33.20
2023-05-13T10:50:34.816Z,32.40
2023-05-13T10:53:03.386Z,33.00
2023-05-13T10:55:31.058Z,32.80
2023-05-13T10:58:07.508Z,31.70
2023-05-13T11:00:39.011Z,31.70
2023-05-13T11:03:15.375Z,32.40
2023-05-13T11:06:00.828Z,32.70
2023-05-13T11:08:45.289Z,32.10
2023-05-13T11:11:20.904Z,32.20
2023-05-13T11:13:56.253Z,32.50
2023-05-13T11:16:24.572Z,30.20
2023-05-13T11:18:53.173Z,31.60
2023-05-13T11:21:32.561Z,31.30
2023-05-13T11:24:04.388Z,31.90
2023-05-13T11:26:51.767Z,31.20
2023-05-13T11:29:37.445Z,31.10
2023-05-13T11:32:07.048Z,32.00
2023-05-13T11:34:34.991Z,31.40
2023-05-13T11:37:03.504Z,32.30
2023-05-13T11:39:31.673Z,31.90
2023-05-13T11:42:17.688Z,32.70
2023-05-13T11:44:49.566Z,33.30
2023-05-13T11:47:26.341Z,32.00
2023-05-13T11:49:53.995Z,33.10
2023-05-13T11:52:21.296Z,31.10
2023-05-13T11:54:50.642Z,32.20
2023-05-13T11:57:18.071Z,31.00
2023-05-13T11:59:57.808Z,31.40
2023-05-13T12:02:28.927Z,31.00
2023-05-13T12:05:02.012Z,31.80
2023-05-13T12:07:29.365Z,31.30
2023-05-13T12:09:59.318Z,31.40
2023-05-13T12:12:28.332Z,31.90
2023-05-13T12:15:00.095Z,31.50
2023-05-13T12:17:27.577Z,31.10
2023-05-13T12:20:14.862Z,31.60
2023-05-13T12:22:45.119Z,30.90
2023-05-13T12:25:38.151Z,31.80
2023-05-13T12:28:19.015Z,31.30
2023-05-13T12:31:00.359Z,31.40
2023-05-13T12:33:41.787Z,31.50
2023-05-13T12:36:33.805Z,31.60
2023-05-13T12:39:02.544Z,31.90
2023-05-13T12:41:37.593Z,32.30
2023-05-13T12:44:09.264Z,31.30
2023-05-13T12:46:37.846Z,30.60
2023-05-13T12:49:06.212Z,30.80
2023-05-13T12:51:34.325Z,30.90
2023-05-13T12:54:02.006Z,30.90
2023-05-13T12:56:29.799Z,32.00
2023-05-13T12:58:59.510Z,31.30
2023-05-13T13:01:27.333Z,31.60
2023-05-13T13:03:56.414Z,31.70
2023-05-13T13:06:25.166Z,31.90
2023-05-13T13:08:52.396Z,31.00
2023-05-13T13:11:19.908Z,31.00
2023-05-13T13:13:48.295Z,31.80
2023-05-13T13:16:15.988Z,31.60
2023-05-13T13:18:43.448Z,31.90
2023-05-13T13:21:11.326Z,31.10
2023-05-13T13:23:38.951Z,31.30
2023-05-13T13:26:07.264Z,31.70
2023-05-13T13:28:34.707Z,31.20
2023-05-13T13:31:02.418Z,31.20
2023-05-13T13:33:29.855Z,30.50
2023-05-13T13:35:57.458Z,30.90
2023-05-13T13:38:24.864Z,30.80
2023-05-13T13:40:52.567Z,31.30
2023-05-13T13:43:19.889Z,31.40
2023-05-13T13:45:47.522Z,31.30
2023-05-13T13:48:14.926Z,31.10
2023-05-13T13:50:42.585Z,31.00
2023-05-13T13:53:09.856Z,31.00
2023-05-13T13:55:37.412Z,31.80
2023-05-13T13:58:04.618Z,31.10
2023-05-13T14:00:32.191Z,31.20
2023-05-13T14:03:00.818Z,29.80
2023-05-13T14:05:28.948Z,30.10
2023-05-13T14:07:56.488Z,30.70
2023-05-13T14:10:24.118Z,29.80
2023-05-13T14:12:51.966Z,30.10
2023-05-13T14:15:19.435Z,30.20
2023-05-13T14:17:46.849Z,30.80
2023-05-13T14:20:14.395Z,31.20
2023-05-13T14:22:41.649Z,30.50
2023-05-13T14:25:09.789Z,30.90
2023-05-13T14:27:37.524Z,29.40
2023-05-13T14:30:06.795Z,28.80
2023-05-13T14:32:34.535Z,28.80
2023-05-13T14:35:02.068Z,29.20
2023-05-13T14:37:29.308Z,28.90
2023-05-13T14:42:24.536Z,26.90
2023-05-13T14:49:48.905Z,24.80
2023-05-13T14:52:16.133Z,23.20
2023-05-13T14:57:11.418Z,23.40
2023-05-13T14:59:39.017Z,22.60
2023-05-13T15:02:06.332Z,23.30
2023-05-13T15:07:03.653Z,23.10
2023-05-13T15:09:31.277Z,22.80
2023-05-13T15:21:51.218Z,22.80
2023-05-13T15:24:18.883Z,22.10
2023-05-13T15:26:48.316Z,28.70
2023-05-13T15:31:43.944Z,28.20
2023-05-13T15:34:11.551Z,30.40
2023-05-13T15:36:38.937Z,30.50
2023-05-13T15:39:07.520Z,30.40
2023-05-13T15:41:34.923Z,24.80
2023-05-13T15:44:02.610Z,29.50
2023-05-13T15:46:35.125Z,28.60
2023-05-13T15:49:03.286Z,22.00
2023-05-13T15:51:30.469Z,21.40
2023-05-13T15:53:57.980Z,22.10
2023-05-13T15:56:25.830Z,22.00
2023-05-13T15:58:55.777Z,22.00
2023-05-13T16:01:23.163Z,21.70
2023-05-13T16:03:50.720Z,21.80
2023-05-13T16:06:18.053Z,21.50
2023-05-13T16:08:45.811Z,21.80
2023-05-13T16:11:14.291Z,22.30
2023-05-13T16:13:41.837Z,22.50
2023-05-13T16:16:09.230Z,24.20
2023-05-13T16:18:37.025Z,23.50
2023-05-13T16:21:04.676Z,22.80
2023-05-13T16:23:32.111Z,22.70
2023-05-13T16:25:59.585Z,22.40
2023-05-13T16:33:39.589Z,22.10
2023-05-13T16:36:21.921Z,22.20
2023-05-13T16:38:57.404Z,22.60
2023-05-13T16:41:33.301Z,22.20
2023-05-13T16:44:15.467Z,22.30
2023-05-13T16:46:42.960Z,22.30
2023-05-13T16:49:31.208Z,22.50
2023-05-13T16:52:15.988Z,22.30
2023-05-13T16:54:54.028Z,22.20
2023-05-13T16:57:36.199Z,22.60
2023-05-13T17:02:47.581Z,22.70
2023-05-13T17:05:15.215Z,22.80
2023-05-13T17:07:42.928Z,22.70
2023-05-13T17:10:10.637Z,22.80
2023-05-13T17:12:38.413Z,23.00
2023-05-13T17:15:06.744Z,23.20
2023-05-13T17:17:34.294Z,23.00
2023-05-13T17:20:01.535Z,23.50
2023-05-13T17:22:29.130Z,23.50
2023-05-13T17:24:56.462Z,23.60
2023-05-13T17:27:24.248Z,23.50
2023-05-13T17:29:51.619Z,23.80
2023-05-13T17:32:19.205Z,23.80
2023-05-13T17:34:46.493Z,24.10
2023-05-13T17:37:14.150Z,24.20
2023-05-13T17:39:41.421Z,25.20
2023-05-13T17:42:09.399Z,25.90
2023-05-13T17:44:36.902Z,26.90
2023-05-13T17:47:04.919Z,27.80
2023-05-13T17:49:32.234Z,28.60
2023-05-13T17:51:59.627Z,29.20
2023-05-13T17:54:26.918Z,30.00
2023-05-13T17:56:54.362Z,30.80
2023-05-13T17:59:21.631Z,31.60
2023-05-13T18:01:49.223Z,32.20
2023-05-13T18:04:16.768Z,32.90
2023-05-13T18:06:44.384Z,33.90
2023-05-13T18:09:12.032Z,34.30
2023-05-13T18:11:39.831Z,34.70
2023-05-13T18:14:07.243Z,35.20
2023-05-13T18:16:34.964Z,35.80
2023-05-13T18:19:02.435Z,49.00
2023-05-13T18:21:31.211Z,41.30
2023-05-13T18:23:58.580Z,43.30
2023-05-13T18:26:26.704Z,37.60
2023-05-13T18:28:54.047Z,38.20
2023-05-13T18:31:21.709Z,39.20
2023-05-13T18:33:48.906Z,39.30
2023-05-13T18:36:17.173Z,39.60
2023-05-13T18:38:48.030Z,40.70
2023-05-13T18:41:16.258Z,42.50
2023-05-13T18:43:43.887Z,43.20
2023-05-13T18:46:11.949Z,43.90
2023-05-13T18:48:39.464Z,44.20
2023-05-13T18:51:07.112Z,45.40
2023-05-13T18:53:34.359Z,45.70
2023-05-13T18:56:02.300Z,46.40
2023-05-13T18:58:29.623Z,46.70
2023-05-13T19:00:57.166Z,47.10
2023-05-13T19:03:24.665Z,47.80
2023-05-13T19:05:52.757Z,48.40
2023-05-13T19:08:19.987Z,49.40
2023-05-13T19:10:47.785Z,49.70
2023-05-13T19:13:16.928Z,50.40
2023-05-13T19:15:44.531Z,51.00
2023-05-13T19:18:13.120Z,51.90
2023-05-13T19:20:41.224Z,52.50
2023-05-13T19:23:08.561Z,52.90
2023-05-13T19:25:37.918Z,53.40
2023-05-13T19:28:05.227Z,53.80
2023-05-13T19:30:32.796Z,54.20
2023-05-13T19:33:00.249Z,54.50
2023-05-13T19:35:27.951Z,54.90
2023-05-13T19:37:56.220Z,55.70
2023-05-13T19:40:24.115Z,55.90
2023-05-13T19:42:51.551Z,56.30
2023-05-13T19:45:21.367Z,56.80
2023-05-13T19:47:49.641Z,57.10
2023-05-13T19:50:18.757Z,57.70
2023-05-13T19:52:46.002Z,58.00
2023-05-13T19:55:13.873Z,58.40
2023-05-13T19:57:42.354Z,58.70
2023-05-13T20:00:11.646Z,59.20
2023-05-13T20:02:39.552Z,59.60
2023-05-13T20:05:08.907Z,59.60
2023-05-13T20:07:36.585Z,60.30
2023-05-13T20:10:04.896Z,60.30
2023-05-13T20:12:32.619Z,61.00
2023-05-13T20:15:01.213Z,61.10
2023-05-13T20:17:28.705Z,61.50
2023-05-13T20:19:56.455Z,61.70
2023-05-13T20:22:23.704Z,62.10
2023-05-13T20:24:51.665Z,62.30
2023-05-13T20:27:18.910Z,62.90
2023-05-13T20:29:47.983Z,63.10
2023-05-13T20:32:24.372Z,63.30
2023-05-13T20:34:54.626Z,64.30
2023-05-13T20:37:23.985Z,64.20
2023-05-13T20:39:52.525Z,64.50
2023-05-13T20:42:22.957Z,64.70
2023-05-13T20:44:50.937Z,64.90
2023-05-13T20:47:19.071Z,65.30
2023-05-13T20:49:47.256Z,65.40
2023-05-13T20:52:14.701Z,65.60
2023-05-13T20:54:42.192Z,66.10
2023-05-13T20:57:09.702Z,66.30
2023-05-13T20:59:37.500Z,67.00
2023-05-13T21:02:05.089Z,66.70
2023-05-13T21:04:32.737Z,67.00
2023-05-13T21:07:00.280Z,67.30
2023-05-13T21:09:28.174Z,67.60
2023-05-13T21:11:56.271Z,67.80
2023-05-13T21:14:24.192Z,67.90
2023-05-13T21:16:51.493Z,68.10
2023-05-13T21:19:21.471Z,68.20
2023-05-13T21:21:48.796Z,68.80
2023-05-13T21:24:18.315Z,69.20
2023-05-13T21:26:46.368Z,69.10
2023-05-13T21:29:13.910Z,69.50
2023-05-13T21:31:41.458Z,69.60
2023-05-13T21:34:09.350Z,69.80
2023-05-13T21:36:39.464Z,70.20
2023-05-13T21:39:09.462Z,70.50
2023-05-13T21:41:37.208Z,70.70
2023-05-13T21:44:04.839Z,71.00
2023-05-13T21:46:32.267Z,71.40
2023-05-13T21:49:00.566Z,71.90
2023-05-13T21:51:28.620Z,72.60
2023-05-13T21:53:56.278Z,72.80
2023-05-13T21:56:23.454Z,72.90
2023-05-13T21:58:51.549Z,73.10
2023-05-13T22:01:18.870Z,73.20
2023-05-13T22:03:46.777Z,73.20
2023-05-13T22:06:14.461Z,73.10
2023-05-13T22:08:42.022Z,73.20
2023-05-13T22:11:09.287Z,73.00
2023-05-13T22:13:36.748Z,73.40
2023-05-13T22:16:04.399Z,73.60
2023-05-13T22:18:33.886Z,73.50
2023-05-13T22:21:01.471Z,73.90
2023-05-13T22:23:28.907Z,74.10
2023-05-13T22:25:56.562Z,74.40
2023-05-13T22:28:24.234Z,75.20
2023-05-13T22:30:52.122Z,75.50
2023-05-13T22:33:19.882Z,76.30
2023-05-13T22:35:47.629Z,76.50
2023-05-13T22:38:15.257Z,77.00
2023-05-13T22:40:42.834Z,77.20
2023-05-13T22:43:10.731Z,77.60
2023-05-13T22:45:37.990Z,78.30
2023-05-13T22:48:06.140Z,79.20
2023-05-13T22:50:33.736Z,80.20
2023-05-13T22:53:02.698Z,80.70
2023-05-13T22:55:30.002Z,81.10
2023-05-13T22:57:58.632Z,81.70
2023-05-13T23:00:26.104Z,82.00
2023-05-13T23:02:56.126Z,82.50
2023-05-13T23:05:23.646Z,83.00
2023-05-13T23:07:51.214Z,83.80
2023-05-13T23:10:18.765Z,84.70
2023-05-13T23:12:46.645Z,85.90
2023-05-13T23:15:16.045Z,86.90
2023-05-13T23:17:43.883Z,87.30
2023-05-13T23:20:11.794Z,87.60
2023-05-13T23:22:39.695Z,87.60
2023-05-13T23:25:09.174Z,87.80
2023-05-13T23:27:36.828Z,87.90
2023-05-13T23:30:04.608Z,88.20
2023-05-13T23:32:32.430Z,88.50
2023-05-13T23:34:59.813Z,89.10
2023-05-13T23:37:31.181Z,90.20
2023-05-13T23:39:58.361Z,90.60
2023-05-13T23:42:26.274Z,91.10
2023-05-13T23:44:53.891Z,91.70
2023-05-13T23:47:21.746Z,92.40
2023-05-13T23:49:48.949Z,93.00
2023-05-13T23:52:17.212Z,93.50
2023-05-13T23:54:44.644Z,94.00
2023-05-13T23:57:12.109Z,94.40
2023-05-13T23:59:39.598Z,95.10
